Time;durP1;ratioP1;P1;durP2;ratioP2;P2;SDS_P1;SDS_P2;PMS_P1;PMS_P2;Temp;Humidity;BMP_temperature;BMP_pressure;BME280_temperature;BME280_humidity;BME280_pressure;Samples;Min_cycle;Max_cycle;Signal;HPM_P1;HPM_P2
2022/07/08 04:15:18;;;;;;;4.85;1.88;;;;;;;16.64;70.45;102826.16;7403977;19;20847;-62
2022/07/08 04:18:06;;;;;;;2.10;1.63;;;;;;;16.59;71.16;102832.75;7414004;19;20464;-61
2022/07/08 04:20:54;;;;;;;4.53;1.80;;;;;;;16.66;71.26;102843.41;7418199;19;20014;-63
2022/07/08 04:23:42;;;;;;;1.95;1.58;;;;;;;16.68;71.40;102855.09;7420617;19;20014;-62
2022/07/08 04:26:32;;;;;;;2.13;1.67;;;;;;;16.69;71.39;102842.75;7412132;19;20468;-63
2022/07/08 04:29:20;;;;;;;2.40;1.92;;;;;;;16.58;71.73;102847.88;7411376;19;20010;-63
2022/07/08 04:32:11;;;;;;;3.05;2.50;;;;;;;16.55;72.26;102851.34;7412051;19;20034;-63
2022/07/08 04:34:47;;;;;;;2.85;2.25;;;;;;;16.57;71.79;102857.44;7403152;19;20033;-61
2022/07/08 04:37:15;;;;;;;4.00;2.47;;;;;;;16.49;72.38;102857.44;7407739;19;20014;-59
2022/07/08 04:39:45;;;;;;;3.85;1.95;;;;;;;16.43;72.74;102865.19;7418473;19;20037;-60
2022/07/08 04:42:12;;;;;;;2.10;1.90;;;;;;;16.38;72.59;102866.19;7402611;19;20014;-63
2022/07/08 04:44:40;;;;;;;3.53;2.35;;;;;;;16.25;73.17;102861.63;7412584;19;20489;-64
2022/07/08 04:47:10;;;;;;;5.15;2.50;;;;;;;16.21;73.58;102871.81;7418939;19;20010;-63
2022/07/08 04:57:00;;;;;;;0.80;0.70;;;;;;;16.15;73.54;102866.75;7414158;19;20341;-59
2022/07/08 04:59:48;;;;;;;0.85;0.85;;;;;;;16.05;73.69;102862.31;7417922;19;20010;-60
2022/07/08 05:02:36;;;;;;;0.60;0.60;;;;;;;16.04;73.91;102859.84;7409853;19;20015;-62
2022/07/08 05:05:24;;;;;;;0.77;0.38;;;;;;;16.09;73.90;102866.09;7409482;19;20341;-60
2022/07/08 05:08:13;;;;;;;1.65;0.60;;;;;;;16.15;73.85;102856.38;7412090;19;20014;-60
2022/07/08 05:10:50;;;;;;;0.55;0.55;;;;;;;16.17;73.94;102859.66;7404273;19;20007;-60
2022/07/08 05:13:18;;;;;;;0.35;0.35;;;;;;;16.18;73.98;102861.28;7397878;19;20006;-60
2022/07/08 05:15:45;;;;;;;0.75;0.50;;;;;;;16.23;73.88;102863.91;7406006;19;20065;-62
2022/07/08 05:18:16;;;;;;;0.52;0.35;;;;;;;16.23;74.00;102869.50;7411588;19;20098;-62
2022/07/08 05:20:43;;;;;;;1.05;0.50;;;;;;;16.21;74.41;102877.41;7410358;19;20007;-59
2022/07/08 05:23:12;;;;;;;0.50;0.40;;;;;;;16.26;73.95;102877.22;7402859;19;20129;-62
2022/07/08 05:25:42;;;;;;;1.02;0.63;;;;;;;16.24;74.46;102876.75;7391753;19;20024;-61
2022/07/08 05:28:15;;;;;;;0.85;0.50;;;;;;;16.27;74.47;102864.91;7374707;19;20451;-60
2022/07/08 05:30:42;;;;;;;0.50;0.50;;;;;;;16.34;74.45;102870.78;7376159;19;20009;-59
2022/07/08 05:33:10;;;;;;;0.60;0.55;;;;;;;16.41;74.22;102865.50;7385731;19;20010;-60
2022/07/08 05:35:37;;;;;;;1.10;0.52;;;;;;;16.47;74.72;102880.13;7383060;19;20384;-61
2022/07/08 05:38:05;;;;;;;0.80;0.40;;;;;;;16.54;74.37;102866.50;7374462;19;20035;-61
2022/07/08 05:40:32;;;;;;;0.70;0.60;;;;;;;16.53;74.25;102872.41;7376708;19;20075;-60
2022/07/08 05:43:00;;;;;;;0.88;0.50;;;;;;;16.49;74.33;102872.25;7372660;19;20014;-60
2022/07/08 05:45:27;;;;;;;1.27;0.50;;;;;;;16.55;74.14;102881.31;7379051;19;20007;-61
2022/07/08 05:47:55;;;;;;;0.70;0.60;;;;;;;16.63;74.33;102867.28;7380625;19;20003;-62
2022/07/08 05:50:23;;;;;;;0.65;0.38;;;;;;;16.60;74.01;102875.53;7384660;19;20473;-61
2022/07/08 05:52:51;;;;;;;0.30;0.30;;;;;;;16.64;74.00;102879.28;7383723;19;20017;-61
2022/07/08 05:55:18;;;;;;;3.20;0.75;;;;;;;16.66;73.63;102876.97;7381816;19;20373;-62
2022/07/08 05:57:46;;;;;;;1.35;0.30;;;;;;;16.62;73.75;102882.44;7374726;19;20006;-61
2022/07/08 06:00:14;;;;;;;0.43;0.32;;;;;;;16.63;74.03;102886.03;7387738;19;20461;-59
2022/07/08 06:02:42;;;;;;;2.35;0.30;;;;;;;16.61;73.80;102886.38;7379125;19;20074;-62
2022/07/08 06:05:09;;;;;;;2.05;0.43;;;;;;;16.64;73.62;102882.09;7377106;19;21117;-62
2022/07/08 06:07:37;;;;;;;1.08;0.22;;;;;;;16.66;73.98;102876.97;7379060;19;20116;-61
2022/07/08 06:10:05;;;;;;;0.50;0.50;;;;;;;16.74;73.45;102878.91;7363633;19;20002;-61
2022/07/08 06:12:33;;;;;;;1.40;0.38;;;;;;;16.73;73.58;102866.91;7383093;19;20097;-60
2022/07/08 06:15:00;;;;;;;1.33;0.52;;;;;;;16.75;73.42;102860.97;7380371;19;20010;-63
2022/07/08 06:17:28;;;;;;;1.10;0.80;;;;;;;16.77;73.60;102869.84;7381616;19;20075;-60
2022/07/08 06:19:55;;;;;;;1.15;0.63;;;;;;;16.84;73.49;102873.75;7385475;19;20062;-60
2022/07/08 06:22:26;;;;;;;2.42;1.35;;;;;;;16.87;73.15;102872.28;7384033;19;22309;-61
2022/07/08 06:24:55;;;;;;;0.43;0.30;;;;;;;16.82;73.11;102875.25;7370216;19;20029;-60
2022/07/08 06:27:22;;;;;;;0.98;0.50;;;;;;;16.75;73.68;102872.19;7388944;19;20063;-59
2022/07/08 06:33:49;;;;;;;0.32;0.32;;;;;;;16.86;73.67;102876.25;7383458;19;20011;-60
2022/07/08 06:36:16;;;;;;;0.47;0.40;;;;;;;16.84;72.76;102878.53;7364033;19;20066;-61
2022/07/08 06:38:44;;;;;;;0.68;0.30;;;;;;;16.78;72.74;102874.31;7386773;19;20006;-61
2022/07/08 06:41:11;;;;;;;0.25;0.20;;;;;;;16.80;72.53;102870.00;7385272;19;20419;-61
2022/07/08 06:43:40;;;;;;;0.30;0.30;;;;;;;16.84;72.35;102882.16;7387533;19;20018;-60
2022/07/08 06:46:07;;;;;;;1.70;0.20;;;;;;;16.77;72.17;102872.66;7381678;19;20014;-60
2022/07/08 06:48:35;;;;;;;2.25;0.40;;;;;;;16.72;72.33;102868.06;7380504;19;20040;-62
2022/07/08 06:51:03;;;;;;;0.85;0.43;;;;;;;16.72;72.32;102875.63;7380775;19;20033;-61
2022/07/08 06:54:34;;;;;;;1.25;1.15;;;;;;;16.79;72.58;102871.16;7379091;19;20018;-63
2022/07/08 06:56:18;;;;;;;0.77;0.50;;;;;;;16.80;72.93;102867.22;7370354;19;20648;-63
2022/07/08 06:58:46;;;;;;;0.65;0.40;;;;;;;16.83;73.20;102868.53;7348074;19;20034;-62
2022/07/08 07:01:13;;;;;;;1.25;0.30;;;;;;;16.89;73.12;102858.78;7381873;19;20083;-62
2022/07/08 07:03:41;;;;;;;1.85;0.40;;;;;;;17.00;72.87;102857.22;7382080;19;20044;-61
2022/07/08 07:09:40;;;;;;;0.40;0.22;;;;;;;17.16;72.44;102851.84;7379276;19;21391;-61
2022/07/08 07:12:08;;;;;;;0.65;0.10;;;;;;;17.18;72.58;102853.19;7381772;19;20052;-63
2022/07/08 07:14:36;;;;;;;0.30;0.30;;;;;;;17.22;72.18;102856.09;7376099;19;20022;-61
2022/07/08 07:17:03;;;;;;;0.25;0.20;;;;;;;17.23;71.79;102861.38;7372058;19;21137;-60
2022/07/08 07:19:31;;;;;;;1.48;0.30;;;;;;;17.22;71.29;102856.94;7371952;19;20010;-60
2022/07/08 07:21:59;;;;;;;0.85;0.35;;;;;;;17.25;70.85;102859.06;7380489;19;20048;-60
2022/07/08 07:24:27;;;;;;;0.20;0.20;;;;;;;17.33;71.31;102858.19;7383708;19;20862;-61
2022/07/08 07:27:02;;;;;;;1.13;0.40;;;;;;;17.34;70.58;102865.41;7327282;19;20059;-62
2022/07/08 07:29:30;;;;;;;1.23;0.50;;;;;;;17.42;70.49;102860.94;7356306;19;20388;-62
2022/07/08 07:31:58;;;;;;;1.27;0.68;;;;;;;17.37;70.53;102863.91;7380140;19;20448;-63
2022/07/08 07:34:26;;;;;;;2.90;0.70;;;;;;;17.28;70.44;102866.78;7371628;19;20489;-61
2022/07/08 07:36:53;;;;;;;2.58;0.63;;;;;;;17.29;69.96;102862.81;7384945;19;20394;-64
2022/07/08 07:39:25;;;;;;;2.97;0.70;;;;;;;17.38;70.11;102862.75;7382274;19;20018;-60
2022/07/08 07:41:52;;;;;;;4.13;0.65;;;;;;;17.50;70.13;102872.03;7375610;19;20489;-60
2022/07/08 07:44:20;;;;;;;1.85;1.00;;;;;;;17.60;70.04;102868.06;7379920;19;20018;-63
2022/07/08 07:46:47;;;;;;;1.38;0.75;;;;;;;17.70;69.45;102867.66;7379960;19;20053;-62
2022/07/08 07:49:15;;;;;;;0.85;0.73;;;;;;;17.71;69.06;102868.47;7372591;19;20583;-61
2022/07/08 07:51:43;;;;;;;0.65;0.65;;;;;;;17.71;69.21;102862.88;7379751;19;20010;-62
2022/07/08 07:54:10;;;;;;;2.65;0.73;;;;;;;17.73;69.28;102866.16;7379941;19;20011;-63
2022/07/08 07:56:38;;;;;;;2.67;0.80;;;;;;;17.84;69.46;102868.19;7382891;19;20368;-61
2022/07/08 07:59:08;;;;;;;1.73;0.80;;;;;;;17.89;68.95;102869.97;7380646;19;20346;-61
2022/07/08 08:01:35;;;;;;;5.90;0.90;;;;;;;17.93;68.85;102865.28;7382347;19;20106;-61
2022/07/08 08:04:03;;;;;;;2.45;0.70;;;;;;;17.97;68.65;102872.69;7386218;19;20011;-62
2022/07/08 08:06:31;;;;;;;0.80;0.80;;;;;;;18.06;68.36;102866.97;7376821;19;20006;-60
2022/07/08 08:12:48;;;;;;;0.73;0.73;;;;;;;18.16;68.23;102861.75;7373581;19;20472;-63
2022/07/08 08:15:16;;;;;;;2.30;0.70;;;;;;;18.20;68.02;102864.69;7363621;19;21397;-62
2022/07/08 08:17:44;;;;;;;4.50;1.17;;;;;;;18.19;67.79;102869.47;7364062;19;20022;-60
2022/07/08 08:20:16;;;;;;;0.75;0.60;;;;;;;18.23;68.20;102864.84;7363320;19;20011;-62
2022/07/08 08:22:43;;;;;;;2.30;1.10;;;;;;;18.40;68.01;102869.41;7384655;19;20464;-61
2022/07/08 08:29:18;;;;;;;3.53;1.05;;;;;;;18.47;67.28;102868.84;7371343;19;20691;-62
2022/07/08 08:31:54;;;;;;;1.50;0.85;;;;;;;18.45;67.05;102866.41;7375714;19;20010;-71
